Time;durP1;ratioP1;P1;durP2;ratioP2;P2;SDS_P1;SDS_P2;PMS_P1;PMS_P2;Temp;Humidity;BMP_temperature;BMP_pressure;BME280_temperature;BME280_humidity;BME280_pressure;Samples;Min_cycle;Max_cycle;Signal;HPM_P1;HPM_P2
2021/05/12 00:02:08;;;;;;;6.15;4.20;;;14.60;99.90;;;;;;4926782;28;20110;-65
2021/05/12 00:04:35;;;;;;;4.43;4.03;;;14.60;99.90;;;;;;4928318;29;20051;-65
2021/05/12 00:07:02;;;;;;;7.53;5.30;;;14.50;99.90;;;;;;4922796;29;20051;-65
2021/05/12 00:09:29;;;;;;;4.85;4.40;;;14.50;99.90;;;;;;4924369;29;20088;-65
2021/05/12 00:11:56;;;;;;;7.05;4.57;;;14.40;99.90;;;;;;4924179;29;20186;-65
2021/05/12 00:14:23;;;;;;;4.93;4.38;;;14.40;99.90;;;;;;4918765;28;20767;-65
2021/05/12 00:16:50;;;;;;;5.90;4.90;;;14.30;99.90;;;;;;4914516;29;20127;-65
2021/05/12 00:19:19;;;;;;;7.28;4.85;;;14.30;99.90;;;;;;4925259;29;20080;-65
2021/05/12 00:21:53;;;;;;;8.75;5.00;;;14.30;99.90;;;;;;4919439;29;20060;-65
2021/05/12 00:24:20;;;;;;;5.32;4.85;;;14.20;99.90;;;;;;4924378;29;20055;-65
2021/05/12 00:26:47;;;;;;;7.32;5.95;;;14.20;99.90;;;;;;4924791;29;20063;-65
2021/05/12 00:29:16;;;;;;;7.18;5.15;;;14.10;99.90;;;;;;4922582;29;20059;-65
2021/05/12 00:31:44;;;;;;;6.53;5.32;;;14.10;99.90;;;;;;4914927;29;20429;-65
2021/05/12 00:34:11;;;;;;;13.48;4.85;;;14.00;99.90;;;;;;4928749;29;20106;-65
2021/05/12 00:36:38;;;;;;;6.05;4.97;;;14.00;99.90;;;;;;4921143;29;20051;-65
2021/05/12 00:39:07;;;;;;;5.35;4.63;;;13.90;99.90;;;;;;4925759;29;20490;-65
2021/05/12 00:41:39;;;;;;;8.35;4.43;;;13.90;99.90;;;;;;4926962;28;20050;-65
2021/05/12 00:44:14;;;;;;;7.68;5.95;;;13.80;99.90;;;;;;4928295;29;20145;-65
2021/05/12 00:46:50;;;;;;;4.97;4.57;;;13.80;99.90;;;;;;4925450;29;20063;-65
2021/05/12 00:49:23;;;;;;;5.90;4.70;;;13.70;99.90;;;;;;4942580;28;20051;-65
2021/05/12 00:51:50;;;;;;;5.78;5.18;;;13.70;99.90;;;;;;4924792;28;20049;-65
2021/05/12 00:54:16;;;;;;;8.77;4.72;;;13.70;99.90;;;;;;4930128;29;20051;-65
2021/05/12 00:56:43;;;;;;;7.18;5.10;;;13.60;99.90;;;;;;4925756;29;20072;-65
2021/05/12 00:59:10;;;;;;;5.50;4.53;;;13.60;99.90;;;;;;4911496;29;20123;-65
2021/05/12 01:01:38;;;;;;;5.68;5.18;;;13.50;99.90;;;;;;4925210;29;20470;-65
2021/05/12 01:04:07;;;;;;;11.60;5.38;;;13.50;99.90;;;;;;4922530;29;20096;-65
2021/05/12 01:06:37;;;;;;;9.38;4.68;;;13.50;99.90;;;;;;4927697;28;20102;-65
2021/05/12 01:09:06;;;;;;;6.20;4.45;;;13.50;99.90;;;;;;4923521;29;20040;-65
2021/05/12 01:11:33;;;;;;;6.63;5.47;;;13.40;99.90;;;;;;4923099;29;20048;-65
2021/05/12 01:14:00;;;;;;;8.52;4.90;;;13.40;99.90;;;;;;4922357;29;20166;-65
2021/05/12 01:16:27;;;;;;;5.68;4.78;;;13.30;99.90;;;;;;4921745;29;20056;-65
2021/05/12 01:18:54;;;;;;;6.07;5.43;;;13.30;99.90;;;;;;4923254;29;20094;-65
2021/05/12 01:21:22;;;;;;;7.00;5.07;;;13.30;99.90;;;;;;4920829;29;20119;-65
2021/05/12 01:23:50;;;;;;;6.20;4.38;;;13.30;99.90;;;;;;4930668;29;20460;-65
2021/05/12 01:26:20;;;;;;;7.88;7.13;;;13.30;99.90;;;;;;4922161;29;20114;-65
2021/05/12 01:28:52;;;;;;;7.35;5.57;;;13.30;99.90;;;;;;4929287;29;20055;-65
2021/05/12 01:31:30;;;;;;;6.55;5.40;;;13.20;99.90;;;;;;4937174;28;20547;-65
2021/05/12 01:33:57;;;;;;;15.00;6.38;;;13.20;99.90;;;;;;4921694;29;20048;-65
2021/05/12 01:36:25;;;;;;;7.55;6.05;;;13.20;99.90;;;;;;4928882;29;20649;-65
2021/05/12 01:38:53;;;;;;;9.23;5.75;;;13.20;99.90;;;;;;4922479;29;20055;-65
2021/05/12 01:41:23;;;;;;;5.55;5.07;;;13.10;99.90;;;;;;4923353;29;20352;-65
2021/05/12 01:43:51;;;;;;;9.63;5.93;;;13.10;99.90;;;;;;4922608;29;20119;-65
2021/05/12 01:46:18;;;;;;;10.05;6.00;;;13.10;99.90;;;;;;4926877;29;20147;-65
2021/05/12 01:48:46;;;;;;;6.03;5.32;;;13.10;99.90;;;;;;4925098;29;20047;-65
2021/05/12 01:51:15;;;;;;;6.07;5.53;;;13.10;99.90;;;;;;4924953;29;20058;-65
2021/05/12 01:53:43;;;;;;;6.53;5.88;;;13.00;99.90;;;;;;4928494;29;20052;-65
2021/05/12 01:56:11;;;;;;;6.18;5.30;;;13.00;99.90;;;;;;4923243;29;20106;-65
2021/05/12 01:58:38;;;;;;;6.75;4.93;;;13.00;99.90;;;;;;4922191;29;20103;-65
2021/05/12 02:01:05;;;;;;;7.35;5.10;;;13.00;99.90;;;;;;4923279;29;20067;-65
2021/05/12 02:03:33;;;;;;;6.47;5.88;;;13.00;99.90;;;;;;4921807;29;20050;-65
2021/05/12 02:06:00;;;;;;;9.43;5.70;;;13.00;99.90;;;;;;4923475;29;20055;-64
2021/05/12 02:08:29;;;;;;;9.93;5.57;;;12.90;99.90;;;;;;4915247;29;20469;-65
2021/05/12 02:11:03;;;;;;;10.07;5.05;;;12.90;99.90;;;;;;4931711;29;20130;-64
2021/05/12 02:13:31;;;;;;;6.55;4.85;;;12.90;99.90;;;;;;4924243;29;20048;-65
2021/05/12 02:16:08;;;;;;;6.22;5.25;;;12.90;99.90;;;;;;4924729;29;20052;-65
2021/05/12 02:18:35;;;;;;;6.88;4.80;;;12.90;99.90;;;;;;4936349;28;20055;-65
2021/05/12 02:21:02;;;;;;;7.22;4.68;;;12.90;99.90;;;;;;4920779;29;20048;-64
2021/05/12 02:23:30;;;;;;;6.65;5.47;;;12.90;99.90;;;;;;4920745;29;20668;-64
2021/05/12 02:25:58;;;;;;;7.22;4.88;;;12.90;99.90;;;;;;4921435;29;20210;-64
2021/05/12 02:28:26;;;;;;;5.50;4.88;;;12.90;99.90;;;;;;4921977;28;20055;-65
2021/05/12 02:30:53;;;;;;;9.05;6.00;;;12.90;99.90;;;;;;4929726;29;20095;-64
2021/05/12 02:33:20;;;;;;;4.65;4.28;;;12.90;99.90;;;;;;4923601;29;20040;-65
2021/05/12 02:35:47;;;;;;;5.50;4.78;;;12.90;99.90;;;;;;4927775;29;20039;-65
2021/05/12 02:38:14;;;;;;;5.57;5.07;;;12.90;99.90;;;;;;4920879;29;20387;-65
2021/05/12 02:40:41;;;;;;;6.63;4.93;;;12.90;99.90;;;;;;4915355;29;21737;-65
2021/05/12 02:43:08;;;;;;;6.70;5.38;;;12.90;99.90;;;;;;4908372;29;20044;-65
2021/05/12 02:45:35;;;;;;;8.95;5.28;;;12.90;99.90;;;;;;4924065;29;20463;-65
2021/05/12 02:48:04;;;;;;;8.55;5.38;;;12.90;99.90;;;;;;4932113;29;20446;-65
2021/05/12 02:50:39;;;;;;;13.00;5.53;;;12.90;99.90;;;;;;4918100;29;20460;-65
2021/05/12 02:53:07;;;;;;;5.50;5.00;;;12.80;99.90;;;;;;4930229;28;20502;-65
2021/05/12 02:55:35;;;;;;;7.22;4.82;;;12.90;99.90;;;;;;4922394;29;20617;-65
2021/05/12 02:58:06;;;;;;;11.68;4.85;;;12.90;99.90;;;;;;4924496;29;20612;-65
2021/05/12 03:00:35;;;;;;;10.85;4.65;;;12.90;99.90;;;;;;4927774;28;20054;-65
2021/05/12 03:03:02;;;;;;;5.38;4.78;;;12.90;99.90;;;;;;4925982;29;20048;-65
2021/05/12 03:05:30;;;;;;;7.93;4.93;;;12.90;99.90;;;;;;4921713;29;20040;-65
2021/05/12 03:07:58;;;;;;;6.85;5.28;;;12.80;99.90;;;;;;4924732;29;20059;-64
2021/05/12 03:10:27;;;;;;;4.63;4.07;;;12.90;99.90;;;;;;4923536;29;20051;-65
2021/05/12 03:12:54;;;;;;;5.65;4.50;;;12.90;99.90;;;;;;4924915;29;20060;-65
2021/05/12 03:15:23;;;;;;;10.60;4.40;;;12.80;99.90;;;;;;4927266;29;20186;-65
2021/05/12 03:17:52;;;;;;;7.72;4.72;;;12.80;99.90;;;;;;4927674;29;20043;-65
2021/05/12 03:20:20;;;;;;;8.95;4.57;;;12.80;99.90;;;;;;4917161;29;20060;-65
2021/05/12 03:22:48;;;;;;;4.70;4.13;;;12.80;99.90;;;;;;4928636;29;20067;-65
2021/05/12 03:25:17;;;;;;;5.18;3.88;;;12.80;99.90;;;;;;4926362;28;20052;-65
2021/05/12 03:27:44;;;;;;;10.00;5.60;;;12.80;99.90;;;;;;4927175;28;20067;-65
2021/05/12 03:30:18;;;;;;;5.85;5.35;;;12.80;99.90;;;;;;4928105;29;20713;-65
2021/05/12 03:32:48;;;;;;;8.90;5.25;;;12.80;99.90;;;;;;4923140;29;21065;-65
2021/05/12 03:35:15;;;;;;;11.63;4.47;;;12.80;99.90;;;;;;4930394;28;20125;-65
2021/05/12 03:37:42;;;;;;;7.18;4.50;;;12.80;99.90;;;;;;4928216;29;20052;-65
2021/05/12 03:40:09;;;;;;;5.72;4.07;;;12.80;99.90;;;;;;4924782;29;20395;-65
2021/05/12 03:42:36;;;;;;;7.22;4.43;;;12.80;99.90;;;;;;4926894;28;20043;-65
2021/05/12 03:45:05;;;;;;;5.95;4.93;;;12.80;99.90;;;;;;4927298;28;20075;-65
2021/05/12 03:47:32;;;;;;;5.22;3.83;;;12.90;99.90;;;;;;4924779;29;20047;-64
2021/05/12 03:50:00;;;;;;;5.70;3.72;;;12.90;99.90;;;;;;4921624;29;20075;-65
2021/05/12 03:52:27;;;;;;;6.90;4.63;;;12.90;99.90;;;;;;4919806;29;20114;-65
2021/05/12 03:54:54;;;;;;;7.25;3.72;;;12.90;99.90;;;;;;4927757;29;20043;-64
2021/05/12 03:57:21;;;;;;;5.47;3.88;;;12.90;99.90;;;;;;4925478;28;20107;-64
2021/05/12 03:59:48;;;;;;;4.45;4.00;;;12.90;99.90;;;;;;4937736;29;20117;-65
2021/05/12 04:02:15;;;;;;;8.65;3.80;;;13.00;99.90;;;;;;4921013;29;20076;-65
2021/05/12 04:04:42;;;;;;;3.97;3.25;;;13.00;99.90;;;;;;4927273;29;20110;-65
2021/05/12 04:07:09;;;;;;;6.50;3.97;;;13.00;99.90;;;;;;4925051;28;20047;-64
2021/05/12 04:09:36;;;;;;;6.20;4.43;;;13.10;99.90;;;;;;4931456;28;20774;-64
2021/05/12 04:12:04;;;;;;;6.03;4.68;;;13.10;99.90;;;;;;4925815;29;20043;-64
2021/05/12 04:14:30;;;;;;;8.85;4.15;;;13.10;99.90;;;;;;4922746;29;20052;-64
2021/05/12 04:16:57;;;;;;;4.90;4.18;;;13.10;99.90;;;;;;4925290;29;20056;-65
2021/05/12 04:19:24;;;;;;;8.18;3.92;;;13.10;99.90;;;;;;4923794;29;20643;-64
2021/05/12 04:21:51;;;;;;;6.03;3.70;;;13.20;99.90;;;;;;4930912;28;20197;-65
2021/05/12 04:24:18;;;;;;;7.28;3.72;;;13.30;99.90;;;;;;4922249;28;20099;-64
2021/05/12 04:26:45;;;;;;;4.28;3.88;;;13.30;99.90;;;;;;4922747;29;20119;-64
2021/05/12 04:29:13;;;;;;;5.25;3.45;;;13.30;99.90;;;;;;4926468;28;20094;-64
2021/05/12 04:31:40;;;;;;;5.80;4.00;;;13.40;99.90;;;;;;4925342;29;20582;-64
2021/05/12 04:34:07;;;;;;;9.75;3.53;;;13.40;99.90;;;;;;4927330;29;20209;-65
2021/05/12 04:36:35;;;;;;;6.68;3.53;;;13.50;99.90;;;;;;4927440;28;20047;-65
2021/05/12 04:39:03;;;;;;;8.60;5.13;;;13.50;99.90;;;;;;4926234;28;20427;-65
2021/05/12 04:41:30;;;;;;;6.90;3.55;;;13.60;99.90;;;;;;4928203;28;20118;-64
2021/05/12 04:43:57;;;;;;;3.95;3.25;;;13.70;99.90;;;;;;4922678;29;20517;-64
2021/05/12 04:46:25;;;;;;;5.13;3.30;;;13.70;99.90;;;;;;4928170;28;20468;-64
2021/05/12 04:48:53;;;;;;;8.85;4.00;;;13.80;99.90;;;;;;4923469;28;20044;-64
2021/05/12 04:51:22;;;;;;;5.50;3.00;;;13.90;99.90;;;;;;4910324;29;20170;-64
2021/05/12 04:53:49;;;;;;;5.20;3.40;;;13.90;99.90;;;;;;4923290;28;20052;-64
2021/05/12 04:56:16;;;;;;;7.28;3.47;;;14.00;99.90;;;;;;4921841;29;20605;-65
2021/05/12 04:58:43;;;;;;;8.15;3.80;;;14.00;99.90;;;;;;4922217;29;20434;-64
2021/05/12 05:01:10;;;;;;;4.70;3.05;;;14.10;99.90;;;;;;4921110;28;20088;-64
2021/05/12 05:03:42;;;;;;;8.88;3.95;;;14.20;99.90;;;;;;4921877;28;20036;-64
2021/05/12 05:06:10;;;;;;;10.10;3.35;;;14.20;99.90;;;;;;4918855;29;20426;-65
2021/05/12 05:08:37;;;;;;;6.88;3.40;;;14.30;99.90;;;;;;4924820;29;20558;-64
2021/05/12 05:11:04;;;;;;;3.45;2.90;;;14.40;99.90;;;;;;4923307;28;20075;-64
2021/05/12 05:13:31;;;;;;;10.57;3.67;;;14.40;99.70;;;;;;4920248;28;20035;-64
2021/05/12 05:15:58;;;;;;;9.65;4.35;;;14.50;98.90;;;;;;4907588;29;20044;-64
2021/05/12 05:18:25;;;;;;;7.70;3.40;;;14.50;99.10;;;;;;4918102;28;20044;-64
2021/05/12 05:20:56;;;;;;;6.68;4.03;;;14.50;98.90;;;;;;4918390;29;20043;-64
2021/05/12 05:23:23;;;;;;;6.13;3.33;;;14.60;99.00;;;;;;4925646;29;20044;-64
2021/05/12 05:25:50;;;;;;;6.20;3.75;;;14.70;98.40;;;;;;4924373;29;20447;-64
2021/05/12 05:28:18;;;;;;;4.15;3.40;;;14.70;97.90;;;;;;4926918;28;20109;-65
2021/05/12 05:30:45;;;;;;;3.47;2.63;;;14.70;98.00;;;;;;4922546;29;20043;-64
2021/05/12 05:33:31;;;;;;;4.53;3.33;;;14.80;97.80;;;;;;4925036;29;20115;-64
2021/05/12 05:36:16;;;;;;;6.72;3.70;;;14.90;97.50;;;;;;4928633;28;20537;-65
2021/05/12 05:39:01;;;;;;;8.88;3.95;;;15.00;97.50;;;;;;4920307;29;20046;-64
2021/05/12 05:41:47;;;;;;;12.50;3.60;;;15.00;96.60;;;;;;4922693;29;20770;-64
2021/05/12 05:44:34;;;;;;;6.93;2.95;;;15.10;96.30;;;;;;4921134;29;20132;-64
2021/05/12 05:47:19;;;;;;;7.80;2.70;;;15.20;96.50;;;;;;4919310;29;20051;-64
2021/05/12 05:50:06;;;;;;;7.50;3.47;;;15.20;95.80;;;;;;4922941;29;20055;-64
2021/05/12 05:52:55;;;;;;;12.95;3.92;;;15.30;96.30;;;;;;4924666;29;20186;-64
2021/05/12 05:55:41;;;;;;;5.65;3.55;;;15.40;95.40;;;;;;4920988;29;20187;-64
2021/05/12 05:58:26;;;;;;;5.43;3.13;;;15.40;95.10;;;;;;4918100;29;20162;-64
2021/05/12 06:01:12;;;;;;;5.63;3.55;;;15.50;95.10;;;;;;4921205;29;20070;-64
2021/05/12 06:03:39;;;;;;;5.32;3.50;;;15.60;94.50;;;;;;4925369;29;20055;-64
2021/05/12 06:06:25;;;;;;;9.40;3.72;;;15.70;94.40;;;;;;4922537;29;20082;-64
2021/05/12 06:09:23;;;;;;;4.85;3.25;;;15.80;94.40;;;;;;3896140;29;10001961;-65
2021/05/12 06:12:09;;;;;;;7.38;3.65;;;15.80;94.30;;;;;;3733233;29;10002492;-64
2021/05/12 06:15:17;;;;;;;16.55;3.50;;;15.90;93.90;;;;;;4883437;29;20052;-64
2021/05/12 06:18:08;;;;;;;3.13;2.83;;;16.00;93.30;;;;;;4883618;29;20088;-64
2021/05/12 06:20:54;;;;;;;10.02;4.07;;;16.10;93.20;;;;;;4910297;29;20622;-64
2021/05/12 06:23:40;;;;;;;4.25;2.88;;;16.20;93.30;;;;;;4924773;29;20556;-64
2021/05/12 06:26:26;;;;;;;5.72;2.67;;;16.30;92.60;;;;;;4921662;29;20497;-64
2021/05/12 06:29:12;;;;;;;8.30;3.90;;;16.40;92.40;;;;;;4919869;29;20046;-64
2021/05/12 06:31:57;;;;;;;6.18;2.97;;;16.50;92.40;;;;;;4922346;29;20075;-64
2021/05/12 06:34:42;;;;;;;4.18;2.50;;;16.50;92.40;;;;;;4933292;28;20050;-64
2021/05/12 06:37:29;;;;;;;9.20;2.92;;;16.60;91.60;;;;;;4920914;29;20581;-65
2021/05/12 06:40:17;;;;;;;4.38;2.88;;;16.70;91.30;;;;;;4916048;29;20046;-65
2021/05/12 06:42:45;;;;;;;5.85;3.45;;;16.80;91.40;;;;;;4919588;28;20043;-64
2021/05/12 06:45:13;;;;;;;4.63;3.05;;;16.90;90.50;;;;;;4921519;28;20386;-64
2021/05/12 06:47:41;;;;;;;4.65;3.00;;;17.00;90.30;;;;;;4920753;29;20139;-64
2021/05/12 06:50:09;;;;;;;6.57;2.90;;;17.10;88.90;;;;;;4923083;29;20039;-64
2021/05/12 06:52:36;;;;;;;16.25;4.38;;;17.20;89.20;;;;;;4912209;29;20058;-64
2021/05/12 06:55:04;;;;;;;5.82;3.03;;;17.30;89.80;;;;;;4924752;29;20076;-64
2021/05/12 06:57:31;;;;;;;4.72;3.92;;;17.40;87.00;;;;;;4923667;29;20043;-64
2021/05/12 06:59:58;;;;;;;6.25;3.15;;;17.40;85.70;;;;;;4921282;29;20696;-64
2021/05/12 07:02:42;;;;;;;3.83;3.05;;;17.40;85.20;;;;;;4918501;29;20139;-64
2021/05/12 07:05:14;;;;;;;5.20;3.13;;;17.50;85.10;;;;;;4904158;29;20053;-65
2021/05/12 07:07:42;;;;;;;3.50;2.65;;;17.50;84.00;;;;;;4921742;29;20403;-64
2021/05/12 07:10:10;;;;;;;4.13;3.03;;;17.60;85.30;;;;;;4924632;29;20047;-64
2021/05/12 07:12:37;;;;;;;10.48;3.70;;;17.70;83.70;;;;;;4919006;29;20119;-64
2021/05/12 07:15:06;;;;;;;6.63;3.60;;;17.70;83.70;;;;;;4925318;29;20372;-64
2021/05/12 07:17:33;;;;;;;8.13;3.80;;;17.80;82.40;;;;;;4922249;29;20047;-65
2021/05/12 07:20:00;;;;;;;10.65;3.20;;;17.80;81.50;;;;;;4917315;29;20419;-64
2021/05/12 07:22:27;;;;;;;3.53;2.70;;;17.90;81.90;;;;;;4910288;29;20083;-64
2021/05/12 07:24:57;;;;;;;4.93;2.35;;;18.00;81.70;;;;;;4917378;29;20569;-65
2021/05/12 07:27:24;;;;;;;3.47;2.47;;;18.00;81.30;;;;;;4918952;29;20131;-64
2021/05/12 07:29:51;;;;;;;4.28;2.70;;;18.00;79.80;;;;;;4924154;29;20486;-64
2021/05/12 07:32:19;;;;;;;7.82;3.25;;;18.10;78.70;;;;;;4925369;29;20043;-65
2021/05/12 07:34:50;;;;;;;7.60;2.88;;;18.10;78.60;;;;;;4921616;29;20049;-64
2021/05/12 07:37:18;;;;;;;7.28;4.10;;;18.20;79.50;;;;;;4923890;29;20423;-65
2021/05/12 07:39:45;;;;;;;7.47;3.83;;;18.20;80.50;;;;;;4920459;29;20119;-65
2021/05/12 07:42:13;;;;;;;6.88;3.13;;;18.40;78.70;;;;;;4923669;29;20048;-65
2021/05/12 07:44:40;;;;;;;4.63;3.15;;;18.50;78.20;;;;;;4931000;28;20076;-64
2021/05/12 07:47:07;;;;;;;4.32;3.08;;;18.60;78.30;;;;;;4923277;29;20108;-64
2021/05/12 07:49:34;;;;;;;6.45;3.42;;;18.70;78.20;;;;;;4927057;29;20387;-64
2021/05/12 07:52:02;;;;;;;3.55;2.60;;;18.80;76.00;;;;;;4926013;29;20437;-64
2021/05/12 07:54:29;;;;;;;3.83;2.88;;;18.80;76.80;;;;;;4922478;28;20090;-65
2021/05/12 07:56:56;;;;;;;8.02;3.47;;;18.90;75.60;;;;;;4927800;28;20040;-65
2021/05/12 07:59:24;;;;;;;3.85;2.67;;;18.90;75.10;;;;;;4927338;29;20044;-64
2021/05/12 08:01:51;;;;;;;7.07;3.75;;;19.00;75.50;;;;;;4921723;29;20103;-64
2021/05/12 08:04:18;;;;;;;6.80;3.17;;;19.10;74.40;;;;;;4932173;29;20114;-65
2021/05/12 08:06:45;;;;;;;4.05;2.42;;;19.10;74.50;;;;;;4926051;28;20047;-65
2021/05/12 08:09:12;;;;;;;8.13;3.60;;;19.20;72.70;;;;;;4922676;29;20055;-64
2021/05/12 08:11:39;;;;;;;7.75;3.13;;;19.30;71.10;;;;;;4923238;29;20356;-64
2021/05/12 08:14:05;;;;;;;9.43;2.85;;;19.30;73.20;;;;;;4925943;29;20048;-64
2021/05/12 08:16:32;;;;;;;4.97;2.88;;;19.30;73.20;;;;;;4923365;29;20091;-64
2021/05/12 08:18:59;;;;;;;5.05;3.30;;;19.30;72.70;;;;;;4927425;29;20055;-64
2021/05/12 08:21:26;;;;;;;5.30;2.88;;;19.30;72.50;;;;;;4923002;29;20051;-64
2021/05/12 08:23:54;;;;;;;6.57;2.72;;;19.40;73.60;;;;;;4926869;29;20085;-65
2021/05/12 08:26:22;;;;;;;3.45;3.15;;;19.50;73.20;;;;;;4923599;29;20118;-65
2021/05/12 08:28:49;;;;;;;4.05;2.72;;;19.70;71.90;;;;;;4923475;29;20047;-64
2021/05/12 08:31:18;;;;;;;6.13;2.90;;;19.80;72.60;;;;;;4929931;29;20095;-65
2021/05/12 08:33:46;;;;;;;4.60;3.10;;;19.90;71.30;;;;;;4924062;29;20063;-64
2021/05/12 08:36:13;;;;;;;3.58;3.28;;;20.00;70.90;;;;;;4915951;29;20630;-66
2021/05/12 08:38:46;;;;;;;5.70;2.70;;;20.00;71.10;;;;;;4924421;29;20048;-64
2021/05/12 08:41:15;;;;;;;7.20;3.58;;;20.00;70.30;;;;;;4920990;29;20147;-64
2021/05/12 08:43:42;;;;;;;6.63;3.58;;;20.00;70.40;;;;;;4918295;28;20051;-65
2021/05/12 08:46:10;;;;;;;5.85;3.30;;;20.00;70.80;;;;;;4929787;29;20489;-64
2021/05/12 08:48:39;;;;;;;4.22;3.08;;;20.00;70.80;;;;;;4922713;29;20043;-64
2021/05/12 08:51:08;;;;;;;6.25;3.10;;;20.00;70.40;;;;;;4927126;28;20051;-64
2021/05/12 08:53:36;;;;;;;9.05;4.07;;;20.10;69.90;;;;;;4927921;29;20122;-64
2021/05/12 08:56:05;;;;;;;4.65;2.90;;;20.20;69.80;;;;;;4921438;29;20636;-65
2021/05/12 08:58:33;;;;;;;5.88;2.92;;;20.20;69.40;;;;;;4918666;28;20140;-64
2021/05/12 09:01:00;;;;;;;6.63;2.88;;;20.30;70.10;;;;;;4922683;29;20513;-64
2021/05/12 09:03:29;;;;;;;8.38;3.05;;;20.40;69.30;;;;;;4929492;29;20503;-64
2021/05/12 09:05:57;;;;;;;9.77;2.50;;;20.40;69.80;;;;;;4925911;29;20475;-64
2021/05/12 09:08:26;;;;;;;5.43;3.33;;;20.40;68.50;;;;;;4920476;29;20487;-65
2021/05/12 09:10:54;;;;;;;10.80;4.70;;;20.50;68.60;;;;;;4917539;29;20055;-64
2021/05/12 09:13:38;;;;;;;4.10;2.65;;;20.60;68.40;;;;;;4926394;29;20048;-64
2021/05/12 09:16:22;;;;;;;5.82;2.60;;;20.80;68.80;;;;;;4921102;29;20565;-64
2021/05/12 09:19:11;;;;;;;7.55;2.92;;;20.90;67.60;;;;;;4923595;29;20123;-64
2021/05/12 09:21:42;;;;;;;7.88;2.60;;;21.10;68.00;;;;;;4922278;29;20044;-64
2021/05/12 09:24:36;;;;;;;2.42;2.22;;;21.30;68.40;;;;;;4921086;29;20140;-64
2021/05/12 09:27:04;;;;;;;5.53;2.72;;;21.40;66.30;;;;;;4920382;29;20449;-64
2021/05/12 09:29:40;;;;;;;4.72;2.58;;;21.50;66.70;;;;;;4922035;29;20066;-65
2021/05/12 09:32:15;;;;;;;7.38;3.22;;;21.70;67.60;;;;;;4923177;29;20047;-64
2021/05/12 09:35:03;;;;;;;3.85;2.53;;;21.80;66.20;;;;;;4919431;29;20075;-65
2021/05/12 09:37:35;;;;;;;6.10;2.30;;;21.90;65.60;;;;;;4923656;29;20460;-65
2021/05/12 09:40:21;;;;;;;7.10;3.40;;;22.00;65.60;;;;;;4922099;29;20590;-64
2021/05/12 09:43:00;;;;;;;4.80;2.92;;;22.10;65.70;;;;;;4918410;29;20072;-65
2021/05/12 09:45:30;;;;;;;2.63;2.13;;;22.10;64.80;;;;;;4921737;29;20466;-64
2021/05/12 09:47:59;;;;;;;5.68;2.42;;;22.10;63.30;;;;;;4922717;29;20111;-64
2021/05/12 09:50:36;;;;;;;3.22;2.50;;;22.30;65.20;;;;;;4918846;29;20044;-65
2021/05/12 09:53:14;;;;;;;3.33;2.30;;;22.40;64.40;;;;;;4925401;28;20147;-64
2021/05/12 09:55:49;;;;;;;6.10;2.97;;;22.50;62.10;;;;;;4923460;29;20042;-65
2021/05/12 09:58:18;;;;;;;2.72;2.42;;;22.40;63.10;;;;;;4918874;29;20048;-65
2021/05/12 10:00:48;;;;;;;5.05;2.13;;;22.50;62.80;;;;;;4928827;29;20834;-64
2021/05/12 10:03:16;;;;;;;3.40;2.20;;;22.60;63.20;;;;;;4920439;29;20057;-65
2021/05/12 10:06:20;;;;;;;7.18;2.80;;;22.60;61.90;;;;;;4922345;28;20047;-65
2021/05/12 10:08:47;;;;;;;6.88;2.65;;;22.80;61.80;;;;;;4912432;29;20052;-65
2021/05/12 10:11:14;;;;;;;10.80;3.15;;;22.70;60.40;;;;;;4921920;29;20205;-65
2021/05/12 10:13:41;;;;;;;6.82;3.13;;;22.80;61.70;;;;;;4922842;29;20075;-65
2021/05/12 10:16:10;;;;;;;5.85;2.63;;;22.80;61.90;;;;;;4923210;29;20371;-65
2021/05/12 10:18:38;;;;;;;6.50;2.53;;;22.90;61.40;;;;;;4922802;29;20496;-65
2021/05/12 10:21:09;;;;;;;2.45;2.25;;;22.90;61.90;;;;;;4922049;28;20504;-65
2021/05/12 10:23:37;;;;;;;5.68;3.85;;;23.10;61.70;;;;;;4906868;29;20383;-65
2021/05/12 10:26:06;;;;;;;3.10;2.08;;;22.90;60.10;;;;;;4905348;29;20055;-65
2021/05/12 10:28:38;;;;;;;3.88;3.03;;;23.00;61.10;;;;;;4904585;29;20523;-65
2021/05/12 10:31:06;;;;;;;7.00;3.83;;;23.20;61.30;;;;;;4903428;29;20078;-65
2021/05/12 10:33:46;;;;;;;3.08;2.22;;;23.30;60.20;;;;;;4901940;29;20044;-65
2021/05/12 10:36:20;;;;;;;6.60;4.35;;;23.30;61.30;;;;;;4919243;29;20104;-66
2021/05/12 10:38:49;;;;;;;10.15;2.65;;;23.30;60.30;;;;;;4917111;28;20048;-65
2021/05/12 10:41:37;;;;;;;4.32;1.83;;;23.10;59.90;;;;;;4907221;28;20315;-65
2021/05/12 10:44:23;;;;;;;3.47;2.47;;;22.90;58.90;;;;;;4903099;29;20036;-65
2021/05/12 10:47:17;;;;;;;5.35;1.83;;;22.90;60.00;;;;;;4904414;29;20162;-65
2021/05/12 10:49:53;;;;;;;3.33;2.42;;;22.70;60.50;;;;;;4903627;29;20781;-65
2021/05/12 10:52:20;;;;;;;3.53;1.80;;;22.60;59.40;;;;;;4900882;29;20090;-65
2021/05/12 10:54:52;;;;;;;4.82;2.70;;;22.70;59.70;;;;;;4905569;29;20047;-65
2021/05/12 10:57:48;;;;;;;4.65;2.13;;;22.60;58.20;;;;;;4903714;29;20059;-65
2021/05/12 11:00:17;;;;;;;4.22;2.45;;;22.60;61.30;;;;;;4904945;29;20052;-65
2021/05/12 11:02:50;;;;;;;4.55;2.47;;;22.80;59.90;;;;;;4906449;29;20874;-65
2021/05/12 11:05:18;;;;;;;2.97;2.15;;;22.80;61.00;;;;;;4888665;29;20063;-65
2021/05/12 11:08:17;;;;;;;3.17;2.15;;;22.80;60.20;;;;;;4908683;29;20110;-65
2021/05/12 11:11:00;;;;;;;6.18;3.30;;;22.80;60.20;;;;;;4904045;29;20491;-65
2021/05/12 11:13:33;;;;;;;3.65;2.28;;;22.70;60.80;;;;;;4901019;29;20060;-65
2021/05/12 11:16:02;;;;;;;3.55;2.40;;;22.90;60.40;;;;;;4903074;29;20419;-65
2021/05/12 11:18:52;;;;;;;2.20;1.80;;;22.90;58.80;;;;;;4909706;29;20056;-65
2021/05/12 11:21:21;;;;;;;3.42;2.13;;;23.20;58.90;;;;;;4897853;29;20419;-65
2021/05/12 11:24:00;;;;;;;2.85;2.17;;;23.40;57.60;;;;;;4920946;29;20068;-65
2021/05/12 11:32:08;;;;;;;10.45;2.70;;;23.30;57.20;;;;;;4925700;29;20497;-65
2021/05/12 11:34:37;;;;;;;3.85;1.90;;;23.30;59.50;;;;;;4927568;29;20067;-65
2021/05/12 11:37:10;;;;;;;5.70;2.33;;;23.50;59.90;;;;;;4926390;29;20052;-65
2021/05/12 11:39:54;;;;;;;14.20;3.33;;;23.50;57.90;;;;;;4928394;29;20596;-65
2021/05/12 11:42:26;;;;;;;2.65;1.85;;;23.50;59.10;;;;;;4925236;29;20055;-65
2021/05/12 11:45:22;;;;;;;7.70;2.40;;;23.70;57.80;;;;;;4921698;29;20165;-65
2021/05/12 11:48:01;;;;;;;4.03;2.22;;;23.70;57.30;;;;;;4920449;29;20051;-65
2021/05/12 11:50:36;;;;;;;7.75;1.83;;;23.70;57.30;;;;;;4930312;29;20052;-65
2021/05/12 11:53:03;;;;;;;6.75;1.75;;;23.40;58.20;;;;;;4922954;29;20462;-65
2021/05/12 11:55:32;;;;;;;4.90;2.58;;;23.40;56.50;;;;;;4931654;29;20056;-65
2021/05/12 11:58:01;;;;;;;6.72;2.20;;;23.30;56.80;;;;;;4928235;29;20058;-65
2021/05/12 12:00:32;;;;;;;2.10;1.90;;;23.40;59.50;;;;;;4924097;29;20104;-65
2021/05/12 12:03:03;;;;;;;10.63;2.17;;;23.60;59.00;;;;;;4919989;29;20047;-65
2021/05/12 12:05:37;;;;;;;2.85;1.60;;;23.70;58.00;;;;;;4929865;29;20514;-65
2021/05/12 12:08:16;;;;;;;11.25;2.60;;;23.90;57.50;;;;;;4924266;29;20217;-65
2021/05/12 12:10:44;;;;;;;6.47;2.00;;;23.80;56.80;;;;;;4921448;29;20076;-65
2021/05/12 12:13:13;;;;;;;4.35;2.00;;;23.70;57.60;;;;;;4928373;29;20051;-65
2021/05/12 12:15:46;;;;;;;4.38;1.60;;;23.70;56.90;;;;;;4924552;29;20116;-65
2021/05/12 12:18:44;;;;;;;5.70;2.40;;;23.70;56.30;;;;;;4929765;29;20045;-66
2021/05/12 12:21:12;;;;;;;7.72;2.33;;;23.70;57.10;;;;;;4922491;29;20072;-65
2021/05/12 12:23:41;;;;;;;2.15;1.65;;;23.70;58.10;;;;;;4929261;29;20857;-65
2021/05/12 12:26:21;;;;;;;3.75;2.03;;;23.80;58.20;;;;;;4930861;29;20078;-65
2021/05/12 12:28:48;;;;;;;5.35;2.42;;;23.80;56.10;;;;;;4930253;29;20422;-65
2021/05/12 12:31:25;;;;;;;5.68;2.17;;;23.70;57.50;;;;;;4925190;28;20067;-65
2021/05/12 12:34:17;;;;;;;6.10;2.13;;;23.90;57.30;;;;;;4925711;29;20040;-65
2021/05/12 12:36:59;;;;;;;5.72;2.17;;;24.10;57.40;;;;;;4916916;29;20031;-65
2021/05/12 12:39:51;;;;;;;3.85;2.30;;;24.30;58.50;;;;;;4944195;28;20082;-65
2021/05/12 12:42:33;;;;;;;4.38;2.63;;;24.70;58.20;;;;;;4924684;28;20079;-65
2021/05/12 12:45:05;;;;;;;3.97;1.77;;;24.70;56.40;;;;;;4917098;29;20083;-65
2021/05/12 12:47:32;;;;;;;4.70;1.98;;;24.60;57.20;;;;;;4925791;29;20066;-65
2021/05/12 12:50:05;;;;;;;4.25;2.00;;;24.80;58.50;;;;;;4920774;29;20075;-65
2021/05/12 12:52:37;;;;;;;2.72;1.65;;;24.90;57.20;;;;;;4925508;28;20083;-65
2021/05/12 12:55:14;;;;;;;3.53;2.10;;;25.10;57.30;;;;;;4923129;29;20052;-65
2021/05/12 12:57:44;;;;;;;4.20;1.75;;;25.10;55.70;;;;;;4923924;29;20051;-65
2021/05/12 13:00:12;;;;;;;4.18;2.35;;;25.10;55.60;;;;;;4923351;29;20078;-65
2021/05/12 13:03:11;;;;;;;5.15;1.98;;;25.00;55.20;;;;;;4923686;29;20063;-65
2021/05/12 13:05:51;;;;;;;2.53;1.92;;;24.90;56.20;;;;;;4920197;29;20062;-67
2021/05/12 13:08:34;;;;;;;4.18;1.67;;;25.30;56.30;;;;;;4924904;29;20051;-65
2021/05/12 13:11:05;;;;;;;8.05;2.85;;;25.30;55.00;;;;;;4929845;29;20054;-65
2021/05/12 13:13:35;;;;;;;3.83;1.30;;;25.40;55.60;;;;;;4922586;29;20046;-65
2021/05/12 13:16:19;;;;;;;6.32;3.78;;;25.40;55.00;;;;;;4926940;29;20099;-65